Weather at Serpentine Airport

Public forecast

Using degrees Celsius for public forecast. Weather courtesy of forecast.io.

Closest aviation weather report (METAR) to Serpentine Airport

Closest report is Perth Jandakot Airport, 17.9 nm (33.1 km) N. Retrieved 2022/08/10 05:00 UTC (2 minutes ago):

YPJT 100500Z AUTO 19009KT 9999 // NCD 16/07 Q1023 RF000/0000

Closest aviation forecast (TAF) to Serpentine Airport

Closest forecast is Perth Jandakot Airport, 17.9 nm (33.1 km) N. Retrieved 2022-08-10 00:00 UTC (5 hours ago):

TAF YPJT 092304Z 1000/1018 VRB03KT 9999 BKN050 FM100300 20010KT 9999 SCT050 FM101200 14005KT CAVOK